Alyeska Resort Wx Sites
Hourly Roundup from Summit Site
ALYSUM 1/31/2015
Click Here to View Graph!

        DATE  TIME   Air  Wind  Wind  Wind   Rel  BATT Solar
                    Temp   Spd   Dir  Gust  Hum%  Volt Watts
                      F   AVG   AVG   MAX   AVG   AVG    M

   1/31/2015 02:00    28     6    61    10    57 13.04  0.00
   1/31/2015 01:00    28     7    74    14    51 13.05  0.00
   1/30/2015 24:00    27    11    63    15    56 13.06  0.00
   1/30/2015 23:00    26     8    48    15    62 13.08  0.00
   1/30/2015 22:00    26     2    30    13    68 13.09  0.00
   1/30/2015 21:00    26     1    64    10    74 13.11  0.00
   1/30/2015 20:00    25     2     3     7    78 13.14  0.00
   1/30/2015 19:00    26     2    55     9    80 13.18  0.00
   1/30/2015 18:00    25     4   322    10    86 13.36  1.28
   1/30/2015 17:00    26     6   326    13    83 14.64 27.15
   1/30/2015 16:00    27     1    50     8    84 14.86102.40
   1/30/2015 15:00    27     0   344     3    82 14.90164.70
   1/30/2015 14:00    27     0   326     3    86 14.92196.00
   1/30/2015 13:00    30     0    10     1    80 14.95212.50
   1/30/2015 12:00    30     0   355     1    78 14.73150.60
   1/30/2015 11:00    26     0     0     0    95 13.10 16.24
   1/30/2015 10:00    26     0     2     1    97 12.93  6.39
   1/30/2015 09:00    25     0     0     0    99 12.89  0.13
   1/30/2015 08:00    25     2    86     9    99 12.90  0.00
   1/30/2015 07:00    25     2    80     7   100 12.91  0.00
   1/30/2015 06:00    25     2    82     8    99 12.92  0.00
   1/30/2015 05:00    25     8    83    15    99 12.93  0.00
   1/30/2015 04:00    25    11    84    15    98 12.95  0.00
   1/30/2015 03:00    25     8    93    18    96 12.96  0.00


Click Here to View Graph!